Accueil
METAR-TAF:

METAR-TAF

Aéroports :

Chugiak, Alaska, États-Unis

latitude: 61-25N, longitude: 149-31W, altitude: 29 m

Observation

Le bulletin a été fait il y a 39 minutes, à 00:56 UTC
Vent 4 kt de sud
Température -2°C
Humidité 93%
Pression 1007 hPa
Visibilité: 16.1 km
Ciel clair

METAR: PABV 120056Z AUTO 19004KT 10SM CLR M02/M03 A2973 RMK AO2 SLP073 T10171028 FZRANO

Heure: 16:35 (01:35 UTC)


TAF: absent

Observations et prévisions météorologiques de plus de 4000 aéroports (messages METAR et TAF).

Les stations disponibles sont représentées par des disques jaunes et rouges sur la carte.

Passer la souris dessus pour voir le nom de la station.

Cliquer dessus pour voir les observations et prévisions météorologiques.

Pour changer de carte: cliquez sur les boutons verts avec une croix noire pour zoomer, sur le bouton vert avec un tiret pour effectuer un zoom arrière, ou sur les flèches vertes pour les cartes adjacentes.


METAR-TAF: